createdAt,value
2023-01-08T00:00:47.238Z,10.00
2023-01-08T00:03:14.382Z,10.00
2023-01-08T00:05:42.486Z,10.00
2023-01-08T00:08:10.028Z,10.00
2023-01-08T00:10:37.576Z,10.10
2023-01-08T00:13:05.281Z,10.10
2023-01-08T00:15:32.874Z,10.10
2023-01-08T00:17:59.691Z,10.10
2023-01-08T00:20:26.769Z,10.10
2023-01-08T00:22:53.422Z,10.10
2023-01-08T00:25:20.509Z,10.10
2023-01-08T00:27:47.185Z,10.20
2023-01-08T00:30:13.958Z,10.20
2023-01-08T00:32:40.552Z,10.20
2023-01-08T00:35:07.477Z,10.30
2023-01-08T00:37:34.140Z,10.30
2023-01-08T00:40:00.720Z,10.20
2023-01-08T00:42:27.340Z,10.20
2023-01-08T00:44:53.970Z,10.20
2023-01-08T00:47:20.621Z,10.20
2023-01-08T00:49:47.335Z,10.20
2023-01-08T00:52:13.914Z,10.30
2023-01-08T00:54:40.494Z,10.30
2023-01-08T00:57:07.067Z,10.30
2023-01-08T00:59:33.641Z,10.30
2023-01-08T01:02:00.346Z,10.30
2023-01-08T01:04:27.205Z,10.30
2023-01-08T01:06:53.872Z,10.30
2023-01-08T01:09:20.493Z,10.30
2023-01-08T01:11:47.127Z,10.30
2023-01-08T01:14:13.759Z,10.30
2023-01-08T01:16:41.671Z,10.30
2023-01-08T01:19:08.869Z,10.30
2023-01-08T01:21:35.685Z,10.20
2023-01-08T01:24:05.097Z,10.30
2023-01-08T01:26:33.527Z,10.30
2023-01-08T01:29:00.770Z,10.30
2023-01-08T01:31:30.297Z,10.30
2023-01-08T01:33:57.643Z,10.20
2023-01-08T01:36:25.610Z,10.20
2023-01-08T01:38:54.885Z,10.30
2023-01-08T01:41:29.381Z,10.30
2023-01-08T01:43:58.932Z,10.30
2023-01-08T01:46:36.488Z,10.30
2023-01-08T01:49:15.389Z,10.30
2023-01-08T01:51:49.064Z,10.30
2023-01-08T01:54:17.612Z,10.20
2023-01-08T01:56:46.278Z,10.20
2023-01-08T01:59:13.326Z,10.30
2023-01-08T02:01:42.371Z,10.30
2023-01-08T02:04:11.605Z,10.30
2023-01-08T02:09:41.940Z,10.30
2023-01-08T02:12:16.661Z,10.30
2023-01-08T02:15:01.913Z,10.20
2023-01-08T02:17:35.004Z,10.30
2023-01-08T02:20:16.985Z,10.20
2023-01-08T02:22:51.978Z,10.20
2023-01-08T02:26:06.790Z,10.10
2023-01-08T02:29:00.079Z,10.10
2023-01-08T02:31:28.903Z,10.10
2023-01-08T02:33:55.843Z,10.10
2023-01-08T02:36:32.353Z,10.10
2023-01-08T02:39:13.507Z,10.10
2023-01-08T02:42:01.671Z,10.20
2023-01-08T02:44:41.105Z,10.20
2023-01-08T02:47:22.679Z,10.20
2023-01-08T02:49:54.923Z,10.20
2023-01-08T02:52:22.796Z,10.10
2023-01-08T02:54:50.357Z,10.20
2023-01-08T02:57:18.510Z,10.20
2023-01-08T02:59:48.912Z,10.20
2023-01-08T03:02:16.370Z,10.20
2023-01-08T03:04:50.786Z,10.20
2023-01-08T03:07:17.468Z,10.20
2023-01-08T03:09:44.272Z,10.20
2023-01-08T03:12:30.109Z,10.10
2023-01-08T03:15:04.033Z,10.10
2023-01-08T03:17:41.535Z,10.10
2023-01-08T03:20:12.103Z,10.10
2023-01-08T03:22:41.733Z,10.10
2023-01-08T03:25:10.072Z,10.10
2023-01-08T03:27:43.897Z,10.10
2023-01-08T03:30:12.501Z,10.10
2023-01-08T03:32:41.178Z,10.20
2023-01-08T03:35:10.965Z,10.20
2023-01-08T03:37:41.030Z,10.20
2023-01-08T03:40:11.326Z,10.30
2023-01-08T03:42:38.097Z,10.30
2023-01-08T03:45:06.056Z,10.30
2023-01-08T03:47:35.820Z,10.40
2023-01-08T03:50:07.181Z,10.40
2023-01-08T03:52:33.887Z,10.30
2023-01-08T03:55:00.616Z,10.20
2023-01-08T03:57:27.356Z,10.20
2023-01-08T03:59:54.045Z,10.30
2023-01-08T04:02:20.814Z,10.20
2023-01-08T04:04:47.804Z,10.20
2023-01-08T04:07:14.834Z,10.30
2023-01-08T04:09:41.492Z,10.20
2023-01-08T04:12:08.111Z,10.20
2023-01-08T04:14:34.734Z,10.20
2023-01-08T04:17:01.407Z,10.20
2023-01-08T04:19:28.058Z,10.20
2023-01-08T04:21:54.716Z,10.20
2023-01-08T04:24:21.363Z,10.20
2023-01-08T04:26:48.044Z,10.20
2023-01-08T04:29:14.764Z,10.20
2023-01-08T04:31:41.534Z,10.10
2023-01-08T04:34:08.292Z,10.10
2023-01-08T04:36:35.019Z,10.10
2023-01-08T04:39:01.728Z,10.20
2023-01-08T04:41:28.378Z,10.20
2023-01-08T04:43:55.059Z,10.20
2023-01-08T04:46:21.809Z,10.20
2023-01-08T04:48:48.494Z,10.30
2023-01-08T04:51:15.157Z,10.20
2023-01-08T04:53:41.889Z,10.20
2023-01-08T04:56:10.362Z,10.20
2023-01-08T04:58:38.274Z,10.10
2023-01-08T05:01:18.887Z,10.10
2023-01-08T05:03:45.537Z,10.00
2023-01-08T05:06:12.193Z,10.00
2023-01-08T05:08:38.876Z,9.90
2023-01-08T05:11:05.560Z,9.90
2023-01-08T05:13:32.164Z,9.90
2023-01-08T05:16:00.435Z,9.90
2023-01-08T05:18:28.244Z,9.80
2023-01-08T05:20:55.084Z,9.80
2023-01-08T05:23:21.683Z,9.80
2023-01-08T05:25:48.317Z,9.80
2023-01-08T05:28:14.971Z,9.70
2023-01-08T05:30:41.674Z,9.70
2023-01-08T05:33:08.396Z,9.60
2023-01-08T05:35:35.059Z,9.60
2023-01-08T05:38:01.712Z,9.60
2023-01-08T05:40:28.297Z,9.60
2023-01-08T05:42:54.898Z,9.60
2023-01-08T05:45:21.701Z,9.60
2023-01-08T05:47:48.505Z,9.40
2023-01-08T05:50:15.253Z,9.40
2023-01-08T05:52:41.925Z,9.30
2023-01-08T05:55:08.993Z,9.30
2023-01-08T05:57:35.621Z,9.30
2023-01-08T06:00:02.642Z,9.40
2023-01-08T06:02:29.296Z,9.40
2023-01-08T06:04:55.967Z,9.30
2023-01-08T06:07:22.544Z,9.30
2023-01-08T06:09:49.112Z,9.30
2023-01-08T06:12:15.698Z,9.30
2023-01-08T06:14:42.343Z,9.30
2023-01-08T06:17:09.294Z,9.20
2023-01-08T06:19:35.908Z,9.20
2023-01-08T06:22:02.493Z,9.20
2023-01-08T06:24:29.115Z,9.20
2023-01-08T06:26:55.786Z,9.10
2023-01-08T06:29:22.375Z,9.10
2023-01-08T06:31:48.946Z,9.10
2023-01-08T06:34:15.688Z,9.10
2023-01-08T06:36:42.328Z,9.10
2023-01-08T06:39:09.337Z,9.00
2023-01-08T06:41:35.925Z,9.00
2023-01-08T06:44:02.618Z,9.00
2023-01-08T06:46:29.298Z,9.00
2023-01-08T06:48:56.010Z,9.00
2023-01-08T06:51:22.602Z,9.00
2023-01-08T06:53:49.322Z,9.00
2023-01-08T06:56:15.994Z,8.90
2023-01-08T06:58:42.613Z,8.90
2023-01-08T07:01:16.628Z,8.90
2023-01-08T07:03:44.015Z,8.90
2023-01-08T07:06:19.817Z,8.90
2023-01-08T07:08:46.525Z,8.90
2023-01-08T07:11:13.811Z,8.90
2023-01-08T07:13:40.601Z,8.80
2023-01-08T07:16:09.143Z,8.80
2023-01-08T07:18:36.293Z,8.70
2023-01-08T07:21:04.196Z,8.70
2023-01-08T07:23:30.829Z,8.80
2023-01-08T07:26:04.608Z,8.70
2023-01-08T07:28:31.684Z,8.60
2023-01-08T07:31:02.248Z,8.60
2023-01-08T07:33:28.890Z,8.60
2023-01-08T07:35:56.283Z,8.60
2023-01-08T07:38:23.627Z,8.60
2023-01-08T07:40:50.288Z,8.50
2023-01-08T07:43:17.028Z,8.50
2023-01-08T07:45:43.687Z,8.60
2023-01-08T07:48:15.471Z,8.50
2023-01-08T07:50:45.012Z,8.50
2023-01-08T07:53:13.513Z,8.50
2023-01-08T07:55:40.165Z,8.50
2023-01-08T07:58:08.897Z,8.50
2023-01-08T08:00:35.718Z,8.50
2023-01-08T08:03:04.085Z,8.50
2023-01-08T08:05:32.454Z,8.50
2023-01-08T08:07:59.074Z,8.40
2023-01-08T08:10:25.732Z,8.40
2023-01-08T08:12:52.389Z,8.40
2023-01-08T08:15:19.053Z,8.40
2023-01-08T08:17:47.345Z,8.40
2023-01-08T08:20:14.713Z,8.40
2023-01-08T08:22:41.568Z,8.40
2023-01-08T08:25:08.944Z,8.40
2023-01-08T08:27:35.684Z,8.40
2023-01-08T08:30:02.601Z,8.30
2023-01-08T08:32:29.174Z,8.40
2023-01-08T08:34:55.882Z,8.40
2023-01-08T08:37:22.644Z,8.30
2023-01-08T08:39:49.292Z,8.30
2023-01-08T08:42:15.898Z,8.30
2023-01-08T08:44:43.054Z,8.30
2023-01-08T08:47:10.267Z,8.30
2023-01-08T08:49:36.906Z,8.20
2023-01-08T08:52:04.560Z,8.30
2023-01-08T08:54:31.325Z,8.30
2023-01-08T08:56:57.928Z,8.20
2023-01-08T08:59:24.611Z,8.20
2023-01-08T09:01:51.299Z,8.30
2023-01-08T09:04:17.966Z,8.30
2023-01-08T09:06:44.529Z,8.30
2023-01-08T09:09:11.189Z,8.30
2023-01-08T09:11:37.781Z,8.30
2023-01-08T09:14:04.445Z,8.40
2023-01-08T09:16:32.942Z,8.40
2023-01-08T09:18:59.623Z,8.40
2023-01-08T09:21:26.267Z,8.40
2023-01-08T09:23:52.839Z,8.40
2023-01-08T09:26:19.463Z,8.50
2023-01-08T09:28:46.091Z,8.60
2023-01-08T09:31:12.714Z,8.70
2023-01-08T09:33:39.382Z,8.80
2023-01-08T09:36:10.904Z,8.90
2023-01-08T09:38:37.496Z,9.00
2023-01-08T09:41:16.594Z,9.10
2023-01-08T09:43:45.905Z,9.20
2023-01-08T09:46:13.569Z,9.30
2023-01-08T09:48:42.078Z,9.30
2023-01-08T09:51:17.762Z,9.30
2023-01-08T09:53:45.049Z,9.40
2023-01-08T09:56:17.393Z,9.50
2023-01-08T09:58:46.747Z,9.60
2023-01-08T10:01:15.571Z,9.80
2023-01-08T10:04:10.211Z,9.80
2023-01-08T10:06:36.885Z,10.00
2023-01-08T10:09:04.510Z,10.00
2023-01-08T10:11:43.365Z,10.10
2023-01-08T10:14:34.124Z,10.30
2023-01-08T10:17:11.471Z,10.30
2023-01-08T10:19:38.769Z,10.40
2023-01-08T10:22:14.186Z,10.40
2023-01-08T10:24:40.806Z,10.40
2023-01-08T10:27:11.204Z,10.30
2023-01-08T10:29:39.769Z,10.40
2023-01-08T10:32:30.589Z,10.30
2023-01-08T10:34:58.429Z,10.40
2023-01-08T10:37:39.287Z,10.40
2023-01-08T10:40:30.230Z,10.60
2023-01-08T10:43:05.411Z,10.70
2023-01-08T10:45:33.193Z,10.70
2023-01-08T10:48:04.371Z,10.90
2023-01-08T10:50:32.769Z,11.10
2023-01-08T10:53:01.731Z,11.10
2023-01-08T10:55:29.447Z,11.20
2023-01-08T10:58:05.071Z,11.20
2023-01-08T11:00:33.897Z,11.20
2023-01-08T11:03:03.567Z,11.10
2023-01-08T11:05:33.561Z,11.10
2023-01-08T11:08:02.647Z,11.10
2023-01-08T11:10:30.301Z,11.10
2023-01-08T11:13:04.126Z,11.10
2023-01-08T11:15:30.781Z,11.10
2023-01-08T11:18:06.726Z,11.10
2023-01-08T11:20:34.431Z,11.10
2023-01-08T11:23:25.282Z,11.10
2023-01-08T11:26:16.989Z,11.20
2023-01-08T11:28:58.933Z,11.20
2023-01-08T11:31:45.859Z,11.20
2023-01-08T11:34:50.260Z,11.10
2023-01-08T11:37:35.635Z,11.00
2023-01-08T11:40:03.415Z,11.00
2023-01-08T11:42:57.434Z,10.90
2023-01-08T11:45:57.586Z,10.90
2023-01-08T11:48:31.648Z,11.00
2023-01-08T11:51:04.154Z,10.90
2023-01-08T11:53:59.203Z,10.90
2023-01-08T11:56:47.393Z,11.00
2023-01-08T11:59:44.552Z,11.00
2023-01-08T12:02:26.010Z,11.00
2023-01-08T12:05:01.553Z,11.00
2023-01-08T12:08:00.466Z,10.90
2023-01-08T12:10:56.144Z,10.90
2023-01-08T12:13:39.152Z,10.90
2023-01-08T12:16:21.202Z,10.90
2023-01-08T12:18:56.722Z,10.90
2023-01-08T12:21:32.253Z,10.80
2023-01-08T12:24:25.132Z,10.90
2023-01-08T12:27:01.171Z,10.90
2023-01-08T12:29:33.318Z,10.90
2023-01-08T12:32:10.279Z,10.90
2023-01-08T12:34:49.399Z,11.00
2023-01-08T12:37:29.424Z,11.10
2023-01-08T12:40:12.007Z,11.10
2023-01-08T12:42:46.948Z,11.20
2023-01-08T12:45:44.626Z,11.10
2023-01-08T12:48:18.620Z,11.10
2023-01-08T12:50:51.277Z,11.10
2023-01-08T12:53:39.116Z,11.10
2023-01-08T12:56:17.592Z,11.00
2023-01-08T12:59:13.410Z,11.10
2023-01-08T13:02:19.584Z,11.30
2023-01-08T13:04:47.641Z,11.40
2023-01-08T13:07:20.380Z,11.40
2023-01-08T13:10:05.782Z,11.40
2023-01-08T13:12:40.492Z,11.40
2023-01-08T13:15:08.283Z,11.40
2023-01-08T13:17:37.422Z,11.30
2023-01-08T13:20:06.960Z,11.40
2023-01-08T13:22:35.951Z,11.40
2023-01-08T13:25:19.923Z,11.40
2023-01-08T13:27:47.593Z,11.40
2023-01-08T13:30:42.550Z,11.40
2023-01-08T13:33:33.690Z,11.40
2023-01-08T13:36:27.625Z,11.20
2023-01-08T13:39:24.093Z,11.20
2023-01-08T13:42:19.694Z,11.20
2023-01-08T13:44:58.712Z,11.20
2023-01-08T13:47:33.020Z,11.30
2023-01-08T13:50:04.216Z,11.20
2023-01-08T13:52:43.957Z,11.20
2023-01-08T13:55:38.828Z,11.10
2023-01-08T13:58:19.355Z,11.10
2023-01-08T14:00:50.187Z,11.00
2023-01-08T14:03:35.810Z,11.10
2023-01-08T14:06:23.707Z,11.10
2023-01-08T14:08:58.618Z,11.10
2023-01-08T14:11:43.937Z,11.00
2023-01-08T14:14:20.198Z,11.00
2023-01-08T14:16:48.530Z,10.90
2023-01-08T14:19:21.353Z,10.80
2023-01-08T14:21:53.786Z,10.90
2023-01-08T14:24:22.252Z,10.80
2023-01-08T14:26:58.056Z,10.80
2023-01-08T14:29:27.813Z,10.70
2023-01-08T14:31:56.920Z,10.80
2023-01-08T14:34:30.221Z,10.70
2023-01-08T14:36:57.220Z,10.70
2023-01-08T14:39:35.545Z,10.70
2023-01-08T14:42:25.846Z,10.60
2023-01-08T14:45:02.145Z,10.60
2023-01-08T14:47:33.992Z,10.70
2023-01-08T14:50:00.986Z,10.70
2023-01-08T14:52:27.694Z,10.60
2023-01-08T14:54:59.839Z,10.60
2023-01-08T14:57:27.690Z,10.70
2023-01-08T14:59:57.233Z,10.60
2023-01-08T15:02:31.400Z,10.60
2023-01-08T15:05:23.954Z,10.60
2023-01-08T15:08:24.121Z,10.50
2023-01-08T15:11:03.915Z,10.50
2023-01-08T15:13:32.858Z,10.40
2023-01-08T15:16:07.585Z,10.40
2023-01-08T15:18:41.676Z,10.40
2023-01-08T15:21:09.209Z,10.40
2023-01-08T15:23:41.799Z,10.30
2023-01-08T15:26:13.581Z,10.40
2023-01-08T15:28:55.178Z,10.30
2023-01-08T15:31:41.474Z,10.30
2023-01-08T15:34:08.753Z,10.30
2023-01-08T15:36:35.344Z,10.30
2023-01-08T15:39:02.515Z,10.20
2023-01-08T15:41:58.790Z,10.10
2023-01-08T15:44:25.825Z,10.10
2023-01-08T15:46:52.694Z,10.10
2023-01-08T15:49:19.522Z,10.10
2023-01-08T15:51:51.780Z,10.00
2023-01-08T15:54:20.572Z,10.10
2023-01-08T15:56:47.284Z,10.00
2023-01-08T15:59:13.901Z,9.90
2023-01-08T16:01:40.705Z,9.90
2023-01-08T16:04:07.494Z,9.90
2023-01-08T16:06:35.982Z,9.90
2023-01-08T16:09:03.222Z,9.80
2023-01-08T16:11:30.016Z,9.90
2023-01-08T16:13:56.637Z,9.80
2023-01-08T16:16:23.937Z,9.80
2023-01-08T16:18:50.708Z,9.70
2023-01-08T16:21:17.324Z,9.60
2023-01-08T16:23:43.972Z,9.60
2023-01-08T16:26:13.275Z,9.60
2023-01-08T16:28:40.551Z,9.60
2023-01-08T16:31:08.439Z,9.60
2023-01-08T16:33:35.231Z,9.60
2023-01-08T16:36:07.373Z,9.50
2023-01-08T16:38:35.809Z,9.60
2023-01-08T16:41:02.957Z,9.50
2023-01-08T16:43:31.241Z,9.50
2023-01-08T16:46:03.169Z,9.50
2023-01-08T16:48:30.650Z,9.40
2023-01-08T16:51:04.981Z,9.50
2023-01-08T16:53:32.169Z,9.40
2023-01-08T16:55:59.945Z,9.40
2023-01-08T16:58:26.554Z,9.40
2023-01-08T17:00:53.239Z,9.40
2023-01-08T17:03:20.647Z,9.50
2023-01-08T17:05:47.360Z,9.60
2023-01-08T17:08:16.271Z,9.50
2023-01-08T17:10:43.979Z,9.50
2023-01-08T17:13:10.579Z,9.60
2023-01-08T17:15:38.074Z,9.60
2023-01-08T17:18:04.847Z,9.60
2023-01-08T17:20:31.595Z,9.60
2023-01-08T17:22:58.838Z,9.60
2023-01-08T17:25:25.573Z,9.70
2023-01-08T17:27:53.969Z,9.60
2023-01-08T17:30:20.927Z,9.60
2023-01-08T17:32:47.518Z,9.70
2023-01-08T17:35:14.250Z,9.70
2023-01-08T17:37:40.866Z,9.60
2023-01-08T17:40:08.267Z,9.70
2023-01-08T17:42:34.907Z,9.70
2023-01-08T17:45:05.370Z,9.70
2023-01-08T17:47:32.568Z,9.70
2023-01-08T17:50:02.032Z,9.70
2023-01-08T17:52:28.763Z,9.70
2023-01-08T17:54:55.442Z,9.70
2023-01-08T17:57:22.216Z,9.70
2023-01-08T17:59:48.927Z,9.80
2023-01-08T18:02:16.921Z,9.80
2023-01-08T18:04:45.472Z,9.80
2023-01-08T18:07:12.285Z,9.80
2023-01-08T18:09:38.987Z,9.70
2023-01-08T18:12:05.944Z,9.70
2023-01-08T18:14:34.845Z,9.80
2023-01-08T18:17:01.764Z,9.80
2023-01-08T18:19:28.450Z,9.70
2023-01-08T18:21:55.145Z,9.70
2023-01-08T18:24:22.051Z,9.70
2023-01-08T18:26:49.675Z,9.60
2023-01-08T18:29:16.419Z,9.60
2023-01-08T18:31:45.735Z,9.60
2023-01-08T18:34:14.827Z,9.60
2023-01-08T18:36:41.556Z,9.60
2023-01-08T18:39:08.198Z,9.50
2023-01-08T18:41:53.443Z,9.60
2023-01-08T18:44:20.090Z,9.60
2023-01-08T18:46:48.086Z,9.60
2023-01-08T18:49:15.275Z,9.50
2023-01-08T18:51:42.025Z,9.60
2023-01-08T18:54:11.001Z,9.50
2023-01-08T18:56:37.758Z,9.50
2023-01-08T18:59:06.478Z,9.50
2023-01-08T19:01:35.002Z,9.50
2023-01-08T19:04:02.134Z,9.50
2023-01-08T19:06:28.818Z,9.50
2023-01-08T19:08:57.951Z,9.50
2023-01-08T19:11:25.075Z,9.40
2023-01-08T19:13:57.001Z,9.50
2023-01-08T19:16:24.397Z,9.40
2023-01-08T19:18:51.173Z,9.50
2023-01-08T19:21:19.357Z,9.40
2023-01-08T19:23:47.488Z,9.40
2023-01-08T19:26:14.582Z,9.30
2023-01-08T19:28:42.549Z,9.30
2023-01-08T19:31:12.246Z,9.30
2023-01-08T19:33:39.436Z,9.40
2023-01-08T19:36:11.001Z,9.40
2023-01-08T19:38:37.859Z,9.40
2023-01-08T19:41:05.199Z,9.40
2023-01-08T19:43:43.958Z,9.40
2023-01-08T19:46:15.389Z,9.40
2023-01-08T19:48:43.935Z,9.50
2023-01-08T19:51:11.931Z,9.50
2023-01-08T19:53:38.740Z,9.50
2023-01-08T19:56:06.877Z,9.50
2023-01-08T19:58:33.797Z,9.50
2023-01-08T20:01:00.992Z,9.50
2023-01-08T20:03:30.664Z,9.40
2023-01-08T20:05:57.300Z,9.50
2023-01-08T20:08:23.934Z,9.50
2023-01-08T20:10:50.587Z,9.50
2023-01-08T20:13:17.219Z,9.50
2023-01-08T20:15:43.780Z,9.50
2023-01-08T20:18:10.370Z,9.50
2023-01-08T20:20:36.933Z,9.40
2023-01-08T20:23:03.517Z,9.40
2023-01-08T20:25:30.191Z,9.40
2023-01-08T20:27:56.816Z,9.40
2023-01-08T20:30:23.426Z,9.40
2023-01-08T20:35:17.583Z,9.50
2023-01-08T20:37:45.989Z,9.50
2023-01-08T20:40:13.422Z,9.50
2023-01-08T20:42:45.543Z,9.50
2023-01-08T20:45:12.222Z,9.50
2023-01-08T20:47:39.351Z,9.50
2023-01-08T20:50:12.515Z,9.50
2023-01-08T20:52:45.963Z,9.60
2023-01-08T20:55:12.623Z,9.60
2023-01-08T20:57:39.249Z,9.60
2023-01-08T21:00:06.515Z,9.50
2023-01-08T21:02:33.155Z,9.40
2023-01-08T21:04:59.734Z,9.40
2023-01-08T21:07:29.746Z,9.40
2023-01-08T21:09:56.367Z,9.40
2023-01-08T21:12:23.027Z,9.40
2023-01-08T21:14:49.702Z,9.40
2023-01-08T21:17:16.314Z,9.30
2023-01-08T21:19:43.063Z,9.40
2023-01-08T21:22:09.718Z,9.30
2023-01-08T21:24:36.593Z,9.30
2023-01-08T21:27:03.425Z,9.30
2023-01-08T21:29:30.159Z,9.30
2023-01-08T21:31:57.327Z,9.30
2023-01-08T21:34:24.085Z,9.20
2023-01-08T21:36:50.793Z,9.20
2023-01-08T21:39:17.462Z,9.20
2023-01-08T21:42:02.569Z,9.20
2023-01-08T21:44:47.838Z,9.30
2023-01-08T21:47:17.212Z,9.30
2023-01-08T21:49:44.562Z,9.20
2023-01-08T21:52:29.755Z,9.20
2023-01-08T21:54:58.175Z,9.20
2023-01-08T21:57:27.633Z,9.10
2023-01-08T21:59:55.021Z,9.20
2023-01-08T22:02:24.011Z,9.30
2023-01-08T22:04:54.374Z,9.30
2023-01-08T22:07:21.251Z,9.20
2023-01-08T22:09:48.054Z,9.10
2023-01-08T22:12:15.884Z,9.10
2023-01-08T22:14:42.732Z,9.10
2023-01-08T22:17:10.184Z,9.10
2023-01-08T22:19:40.531Z,9.20
2023-01-08T22:22:10.712Z,9.20
2023-01-08T22:24:38.231Z,9.20
2023-01-08T22:27:04.881Z,9.20
2023-01-08T22:29:31.577Z,9.10
2023-01-08T22:31:58.247Z,9.00
2023-01-08T22:34:25.246Z,8.90
2023-01-08T22:36:52.765Z,8.90
2023-01-08T22:39:19.694Z,9.00
2023-01-08T22:41:46.299Z,9.00
2023-01-08T22:44:13.736Z,9.00
2023-01-08T22:46:40.822Z,9.00
2023-01-08T22:49:09.677Z,9.10
2023-01-08T22:51:36.358Z,9.10
2023-01-08T22:54:03.068Z,9.10
2023-01-08T22:56:29.649Z,9.10
2023-01-08T22:58:58.089Z,9.10
2023-01-08T23:01:27.437Z,9.10
2023-01-08T23:03:56.650Z,9.10
2023-01-08T23:06:25.352Z,9.00
2023-01-08T23:08:52.855Z,9.00
2023-01-08T23:11:22.014Z,8.90
2023-01-08T23:13:50.998Z,8.90
2023-01-08T23:16:18.806Z,9.00
2023-01-08T23:18:45.753Z,9.00
2023-01-08T23:21:18.798Z,9.10
2023-01-08T23:23:45.774Z,9.00
2023-01-08T23:26:19.358Z,9.00
2023-01-08T23:28:47.283Z,9.00
2023-01-08T23:31:18.255Z,9.00
2023-01-08T23:33:44.990Z,9.00
2023-01-08T23:36:18.047Z,8.90
2023-01-08T23:38:46.053Z,8.80
2023-01-08T23:41:13.071Z,8.90
2023-01-08T23:43:39.998Z,8.80
2023-01-08T23:46:07.808Z,8.80
2023-01-08T23:48:34.857Z,8.80
2023-01-08T23:51:01.696Z,8.80
2023-01-08T23:53:28.531Z,8.70
2023-01-08T23:55:55.199Z,8.70
2023-01-08T23:58:22.083Z,8.70
